createdAt,value
2018-08-09T00:00:32.695Z,0.00
2018-08-09T00:01:32.739Z,0.00
2018-08-09T00:02:32.673Z,0.00
2018-08-09T00:03:32.717Z,0.00
2018-08-09T00:04:32.655Z,0.00
2018-08-09T00:05:32.671Z,0.00
2018-08-09T00:06:32.640Z,0.00
2018-08-09T00:07:32.627Z,0.00
2018-08-09T00:08:32.611Z,0.00
2018-08-09T00:09:32.624Z,0.00
2018-08-09T00:10:32.605Z,0.00
2018-08-09T00:11:32.585Z,0.00
2018-08-09T00:12:32.566Z,0.00
2018-08-09T00:13:32.568Z,0.00
2018-08-09T00:14:32.570Z,0.00
2018-08-09T00:15:32.546Z,0.00
2018-08-09T00:16:32.534Z,0.00
2018-08-09T00:17:32.513Z,0.00
2018-08-09T00:18:32.503Z,0.00
2018-08-09T00:19:32.527Z,0.00
2018-08-09T00:20:32.483Z,0.00
2018-08-09T00:21:32.494Z,0.00
2018-08-09T00:22:32.462Z,0.00
2018-08-09T00:23:32.451Z,0.00
2018-08-09T00:24:32.439Z,0.00
2018-08-09T00:25:32.454Z,0.00
2018-08-09T00:26:32.419Z,0.00
2018-08-09T00:27:32.410Z,0.00
2018-08-09T00:28:32.396Z,0.00
2018-08-09T00:29:32.386Z,0.00
2018-08-09T00:30:32.406Z,0.00
2018-08-09T00:31:32.379Z,0.00
2018-08-09T00:32:32.356Z,0.00
2018-08-09T00:33:32.346Z,0.00
2018-08-09T00:34:32.333Z,0.00
2018-08-09T00:35:32.324Z,0.00
2018-08-09T00:36:32.335Z,0.00
2018-08-09T00:37:32.301Z,0.00
2018-08-09T00:38:32.290Z,0.00
2018-08-09T00:39:32.282Z,0.00
2018-08-09T00:40:32.269Z,0.00
2018-08-09T00:41:32.308Z,0.00
2018-08-09T00:42:32.252Z,0.00
2018-08-09T00:43:32.237Z,0.00
2018-08-09T00:44:32.243Z,0.00
2018-08-09T00:45:32.215Z,0.00
2018-08-09T00:46:32.228Z,0.00
2018-08-09T00:47:32.198Z,0.00
2018-08-09T00:48:32.183Z,0.00
2018-08-09T00:49:32.174Z,0.00
2018-08-09T00:50:32.162Z,0.00
2018-08-09T00:51:32.187Z,0.00
2018-08-09T00:52:32.140Z,0.00
2018-08-09T00:53:32.132Z,0.00
2018-08-09T00:54:32.136Z,0.00
2018-08-09T00:55:32.107Z,0.00
2018-08-09T00:56:32.098Z,0.00
2018-08-09T00:57:32.109Z,0.00
2018-08-09T00:58:32.077Z,0.00
2018-08-09T00:59:32.067Z,0.00
2018-08-09T01:00:32.061Z,0.00
2018-08-09T01:01:32.049Z,0.00
2018-08-09T01:02:32.064Z,0.00
2018-08-09T01:03:32.023Z,0.00
2018-08-09T01:04:32.014Z,0.00
2018-08-09T01:05:32.004Z,0.00
2018-08-09T01:06:31.989Z,0.00
2018-08-09T01:07:31.988Z,0.00
2018-08-09T01:08:31.990Z,0.00
2018-08-09T01:09:31.957Z,0.00
2018-08-09T01:10:31.947Z,0.00
2018-08-09T01:11:31.936Z,0.00
2018-08-09T01:12:31.925Z,0.00
2018-08-09T01:13:31.937Z,0.00
2018-08-09T01:14:31.905Z,0.00
2018-08-09T01:15:31.892Z,0.00
2018-08-09T01:16:31.880Z,0.00
2018-08-09T01:17:31.885Z,0.00
2018-08-09T01:18:31.886Z,0.00
2018-08-09T01:19:31.849Z,0.00
2018-08-09T01:20:31.838Z,0.00
2018-08-09T01:21:31.829Z,0.00
2018-08-09T01:22:31.819Z,0.00
2018-08-09T01:23:31.841Z,0.00
2018-08-09T01:24:31.794Z,0.00
2018-08-09T01:25:31.784Z,0.00
2018-08-09T01:26:31.773Z,0.00
2018-08-09T01:27:31.763Z,0.00
2018-08-09T01:28:31.750Z,0.00
2018-08-09T01:29:31.765Z,0.00
2018-08-09T01:30:31.736Z,0.00
2018-08-09T01:31:31.721Z,0.00
2018-08-09T01:32:31.709Z,0.00
2018-08-09T01:33:31.702Z,0.00
2018-08-09T01:34:31.727Z,0.00
2018-08-09T01:35:31.742Z,0.00
2018-08-09T01:36:31.890Z,0.00
2018-08-09T01:37:31.658Z,0.00
2018-08-09T01:38:31.643Z,0.00
2018-08-09T01:39:31.633Z,0.00
2018-08-09T01:40:31.663Z,0.00
2018-08-09T01:41:31.612Z,0.00
2018-08-09T01:42:31.600Z,0.00
2018-08-09T01:43:31.590Z,0.00
2018-08-09T01:44:31.579Z,0.00
2018-08-09T01:45:31.591Z,0.00
2018-08-09T01:46:31.558Z,0.00
2018-08-09T01:47:31.546Z,0.00
2018-08-09T01:48:31.535Z,0.00
2018-08-09T01:49:31.524Z,0.00
2018-08-09T01:50:31.547Z,0.00
2018-08-09T01:51:31.505Z,0.00
2018-08-09T01:52:31.492Z,0.00
2018-08-09T01:53:31.480Z,0.00
2018-08-09T01:54:31.471Z,0.00
2018-08-09T01:55:31.482Z,0.00
2018-08-09T01:56:31.448Z,0.00
2018-08-09T01:57:31.438Z,0.00
2018-08-09T01:58:31.428Z,0.00
2018-08-09T01:59:31.419Z,0.00
2018-08-09T02:00:31.437Z,0.00
2018-08-09T02:01:31.394Z,0.00
2018-08-09T02:02:31.383Z,0.00
2018-08-09T02:03:31.379Z,0.00
2018-08-09T02:04:31.363Z,0.00
2018-08-09T02:05:31.351Z,0.00
2018-08-09T02:06:31.367Z,0.00
2018-08-09T02:07:31.331Z,0.00
2018-08-09T02:08:31.319Z,0.00
2018-08-09T02:09:31.311Z,0.00
2018-08-09T02:10:31.297Z,0.00
2018-08-09T02:11:31.323Z,0.00
2018-08-09T02:12:31.275Z,0.00
2018-08-09T02:13:31.281Z,0.00
2018-08-09T02:14:31.253Z,0.00
2018-08-09T02:15:31.248Z,0.00
2018-08-09T02:16:31.279Z,0.00
2018-08-09T02:17:31.222Z,0.00
2018-08-09T02:18:31.218Z,0.00
2018-08-09T02:19:31.199Z,0.00
2018-08-09T02:20:31.191Z,0.00
2018-08-09T02:21:31.180Z,0.00
2018-08-09T02:22:31.195Z,0.00
2018-08-09T02:23:31.157Z,0.00
2018-08-09T02:24:31.147Z,0.00
2018-08-09T02:25:31.140Z,0.00
2018-08-09T02:26:31.148Z,0.00
2018-08-09T02:27:31.144Z,0.00
2018-08-09T02:28:31.103Z,0.00
2018-08-09T02:29:31.094Z,0.00
2018-08-09T02:30:31.084Z,0.00
2018-08-09T02:31:31.072Z,0.00
2018-08-09T02:32:31.108Z,0.00
2018-08-09T02:33:31.064Z,0.00
2018-08-09T02:34:31.040Z,0.00
2018-08-09T02:35:31.029Z,0.00
2018-08-09T02:36:31.042Z,0.00
2018-08-09T02:37:31.006Z,0.00
2018-08-09T02:38:31.025Z,0.00
2018-08-09T02:39:30.988Z,0.00
2018-08-09T02:40:30.977Z,0.00
2018-08-09T02:41:30.965Z,0.00
2018-08-09T02:42:30.959Z,0.00
2018-08-09T02:43:30.967Z,0.00
2018-08-09T02:44:30.933Z,0.00
2018-08-09T02:45:30.924Z,0.00
2018-08-09T02:46:30.911Z,0.00
2018-08-09T02:47:30.901Z,0.00
2018-08-09T02:48:30.914Z,0.00
2018-08-09T02:49:30.895Z,0.00
2018-08-09T02:50:30.870Z,0.00
2018-08-09T02:51:30.858Z,0.00
2018-08-09T02:52:30.848Z,0.00
2018-08-09T02:53:30.867Z,0.00
2018-08-09T02:54:30.826Z,0.00
2018-08-09T02:55:30.816Z,0.00
2018-08-09T02:56:30.804Z,0.00
2018-08-09T02:57:30.795Z,0.00
2018-08-09T02:58:30.782Z,0.00
2018-08-09T02:59:30.812Z,0.00
2018-08-09T03:00:30.762Z,0.00
2018-08-09T03:01:30.752Z,0.00
2018-08-09T03:02:30.740Z,0.00
2018-08-09T03:03:30.732Z,0.00
2018-08-09T03:04:30.745Z,0.00
2018-08-09T03:05:30.709Z,0.00
2018-08-09T03:06:30.698Z,0.00
2018-08-09T03:07:30.687Z,0.00
2018-08-09T03:08:30.676Z,0.00
2018-08-09T03:09:30.706Z,0.00
2018-08-09T03:10:30.656Z,0.00
2018-08-09T03:11:30.645Z,0.00
2018-08-09T03:12:30.637Z,0.00
2018-08-09T03:13:30.623Z,0.00
2018-08-09T03:14:30.612Z,0.00
2018-08-09T03:15:30.627Z,0.00
2018-08-09T03:16:30.594Z,0.00
2018-08-09T03:17:30.580Z,0.00
2018-08-09T03:18:30.572Z,0.00
2018-08-09T03:19:30.558Z,0.00
2018-08-09T03:20:30.578Z,0.00
2018-08-09T03:21:30.537Z,0.00
2018-08-09T03:22:30.532Z,0.00
2018-08-09T03:23:30.521Z,0.00
2018-08-09T03:24:30.629Z,0.00
2018-08-09T03:25:30.567Z,0.00
2018-08-09T03:26:30.487Z,0.00
2018-08-09T03:27:30.472Z,0.00
2018-08-09T03:28:30.463Z,0.00
2018-08-09T03:29:30.451Z,0.00
2018-08-09T03:30:30.442Z,0.00
2018-08-09T03:31:30.454Z,0.00
2018-08-09T03:32:30.442Z,0.00
2018-08-09T03:33:30.410Z,0.00
2018-08-09T03:34:30.398Z,0.00
2018-08-09T03:35:30.388Z,0.00
2018-08-09T03:36:30.400Z,0.00
2018-08-09T03:37:30.369Z,0.00
2018-08-09T03:38:30.357Z,0.00
2018-08-09T03:39:30.346Z,0.00
2018-08-09T03:40:30.334Z,0.00
2018-08-09T03:41:30.350Z,0.00
2018-08-09T03:42:30.313Z,4.00
2018-08-09T03:43:30.302Z,0.00
2018-08-09T03:44:30.314Z,4.00
2018-08-09T03:45:30.285Z,4.00
2018-08-09T03:46:30.308Z,4.00
2018-08-09T03:47:30.265Z,8.00
2018-08-09T03:48:30.249Z,8.00
2018-08-09T03:49:30.238Z,8.00
2018-08-09T03:50:30.228Z,16.00
2018-08-09T03:51:30.217Z,16.00
2018-08-09T03:52:30.244Z,16.00
2018-08-09T03:53:30.818Z,16.00
2018-08-09T03:54:30.187Z,20.00
2018-08-09T03:55:30.201Z,24.00
2018-08-09T03:56:30.186Z,28.00
2018-08-09T03:57:30.235Z,32.00
2018-08-09T03:58:30.143Z,36.00
2018-08-09T03:59:30.147Z,36.00
2018-08-09T04:00:30.124Z,36.00
2018-08-09T04:01:30.111Z,40.00
2018-08-09T04:02:30.141Z,44.00
2018-08-09T04:03:30.091Z,60.00
2018-08-09T04:04:30.080Z,76.00
2018-08-09T04:05:30.071Z,92.00
2018-08-09T04:06:30.062Z,100.00
2018-08-09T04:07:30.048Z,112.00
2018-08-09T04:08:30.084Z,124.00
2018-08-09T04:09:30.069Z,132.00
2018-08-09T04:10:30.022Z,136.00
2018-08-09T04:11:30.009Z,128.00
2018-08-09T04:12:29.996Z,132.00
2018-08-09T04:13:30.009Z,156.00
2018-08-09T04:14:29.973Z,184.00
2018-08-09T04:15:29.963Z,212.00
2018-08-09T04:16:29.950Z,240.00
2018-08-09T04:17:29.940Z,264.00
2018-08-09T04:18:29.974Z,288.00
2018-08-09T04:19:29.919Z,312.00
2018-08-09T04:20:29.912Z,332.00
2018-08-09T04:21:29.898Z,348.00
2018-08-09T04:22:29.889Z,368.00
2018-08-09T04:23:29.876Z,400.00
2018-08-09T04:24:29.890Z,432.00
2018-08-09T04:25:29.863Z,472.00
2018-08-09T04:26:29.899Z,508.00
2018-08-09T04:27:29.834Z,548.00
2018-08-09T04:28:29.824Z,576.00
2018-08-09T04:29:29.836Z,608.00
2018-08-09T04:30:29.804Z,628.00
2018-08-09T04:31:29.799Z,644.00
2018-08-09T04:32:29.780Z,660.00
2018-08-09T04:33:29.768Z,684.00
2018-08-09T04:34:29.781Z,708.00
2018-08-09T04:35:29.755Z,736.00
2018-08-09T04:36:29.740Z,776.00
2018-08-09T04:37:29.728Z,840.00
2018-08-09T04:38:29.714Z,932.00
2018-08-09T04:39:29.733Z,1000.00
2018-08-09T04:40:29.692Z,984.00
2018-08-09T04:41:29.693Z,936.00
2018-08-09T04:42:29.671Z,940.00
2018-08-09T04:43:29.660Z,980.00
2018-08-09T04:44:29.649Z,992.00
2018-08-09T04:45:29.662Z,988.00
2018-08-09T04:46:29.627Z,972.00
2018-08-09T04:47:29.617Z,944.00
2018-08-09T04:48:29.607Z,920.00
2018-08-09T04:49:29.595Z,924.00
2018-08-09T04:50:29.607Z,944.00
2018-08-09T04:51:29.572Z,988.00
2018-08-09T04:52:29.566Z,1044.00
2018-08-09T04:53:29.552Z,1060.00
2018-08-09T04:54:29.547Z,1048.00
2018-08-09T04:55:29.563Z,1044.00
2018-08-09T04:56:29.519Z,1132.00
2018-08-09T04:57:29.511Z,1416.00
2018-08-09T04:58:29.588Z,1716.00
2018-08-09T04:59:29.486Z,1888.00
2018-08-09T05:00:29.479Z,2052.00
2018-08-09T05:01:29.488Z,2352.00
2018-08-09T05:02:29.454Z,2756.00
2018-08-09T05:03:29.442Z,3016.00
2018-08-09T05:04:29.464Z,3132.00
2018-08-09T05:05:29.420Z,3116.00
2018-08-09T05:06:29.432Z,3116.00
2018-08-09T05:07:29.399Z,3024.00
2018-08-09T05:08:29.389Z,2952.00
2018-08-09T05:09:29.377Z,3040.00
2018-08-09T05:10:29.367Z,3072.00
2018-08-09T05:11:29.383Z,2724.00
2018-08-09T05:12:29.346Z,2256.00
2018-08-09T05:13:29.335Z,2004.00
2018-08-09T05:14:29.328Z,1880.00
2018-08-09T05:15:29.313Z,1736.00
2018-08-09T05:16:29.334Z,1560.00
2018-08-09T05:17:29.296Z,1420.00
2018-08-09T05:18:29.282Z,1344.00
2018-08-09T05:19:29.291Z,1308.00
2018-08-09T05:20:29.260Z,1316.00
2018-08-09T05:21:29.248Z,1340.00
2018-08-09T05:22:29.261Z,1344.00
2018-08-09T05:23:29.228Z,1436.00
2018-08-09T05:24:29.220Z,1656.00
2018-08-09T05:25:29.205Z,1840.00
2018-08-09T05:26:29.251Z,1964.00
2018-08-09T05:27:29.254Z,2144.00
2018-08-09T05:28:29.172Z,2336.00
2018-08-09T05:29:29.162Z,2376.00
2018-08-09T05:30:29.150Z,2480.00
2018-08-09T05:31:29.139Z,2568.00
2018-08-09T05:32:29.160Z,2656.00
2018-08-09T05:33:29.117Z,3000.00
2018-08-09T05:34:29.109Z,3592.00
2018-08-09T05:35:29.096Z,4208.00
2018-08-09T05:36:29.086Z,4768.00
2018-08-09T05:37:29.099Z,5056.00
2018-08-09T05:38:29.088Z,5028.00
2018-08-09T05:39:29.053Z,4836.00
2018-08-09T05:40:29.047Z,4800.00
2018-08-09T05:41:29.036Z,4464.00
2018-08-09T05:42:29.025Z,4072.00
2018-08-09T05:43:29.034Z,3884.00
2018-08-09T05:44:28.999Z,3788.00
2018-08-09T05:45:28.989Z,3668.00
2018-08-09T05:46:28.979Z,3296.00
2018-08-09T05:47:28.971Z,3088.00
2018-08-09T05:48:28.980Z,3320.00
2018-08-09T05:49:28.947Z,3728.00
2018-08-09T05:50:28.939Z,3892.00
2018-08-09T05:51:28.931Z,3552.00
2018-08-09T05:52:28.916Z,2916.00
2018-08-09T05:53:28.932Z,2504.00
2018-08-09T05:54:28.893Z,2452.00
2018-08-09T05:55:28.883Z,2516.00
2018-08-09T05:56:28.876Z,2456.00
2018-08-09T05:57:28.861Z,2284.00
2018-08-09T05:58:28.950Z,2068.00
2018-08-09T05:59:28.840Z,1772.00
2018-08-09T06:00:28.850Z,1676.00
2018-08-09T06:01:28.818Z,1656.00
2018-08-09T06:02:28.807Z,1772.00
2018-08-09T06:03:28.796Z,2008.00
2018-08-09T06:04:28.812Z,2260.00
2018-08-09T06:05:28.779Z,2364.00
2018-08-09T06:06:28.765Z,2200.00
2018-08-09T06:07:28.754Z,1876.00
2018-08-09T06:08:28.745Z,1600.00
2018-08-09T06:09:28.757Z,1392.00
2018-08-09T06:10:28.722Z,1244.00
2018-08-09T06:11:28.714Z,1176.00
2018-08-09T06:12:28.702Z,1212.00
2018-08-09T06:13:28.728Z,1376.00
2018-08-09T06:14:28.728Z,1856.00
2018-08-09T06:15:28.670Z,2448.00
2018-08-09T06:16:28.659Z,2792.00
2018-08-09T06:17:28.648Z,2960.00
2018-08-09T06:18:28.640Z,2956.00
2018-08-09T06:19:28.627Z,2820.00
2018-08-09T06:20:28.639Z,3124.00
2018-08-09T06:21:28.605Z,3632.00
2018-08-09T06:22:28.594Z,3908.00
2018-08-09T06:23:28.595Z,3616.00
2018-08-09T06:24:28.575Z,3464.00
2018-08-09T06:25:28.588Z,3488.00
2018-08-09T06:26:28.694Z,3772.00
2018-08-09T06:27:28.540Z,4140.00
2018-08-09T06:28:28.582Z,4320.00
2018-08-09T06:29:28.520Z,4192.00
2018-08-09T06:30:28.561Z,3796.00
2018-08-09T06:31:28.502Z,3392.00
2018-08-09T06:32:28.491Z,3120.00
2018-08-09T06:33:28.494Z,3088.00
2018-08-09T06:34:28.466Z,3216.00
2018-08-09T06:35:28.459Z,3240.00
2018-08-09T06:36:28.490Z,3184.00
2018-08-09T06:37:28.434Z,3196.00
2018-08-09T06:38:28.423Z,3204.00
2018-08-09T06:39:28.413Z,3148.00
2018-08-09T06:40:28.401Z,3160.00
2018-08-09T06:41:28.416Z,3240.00
2018-08-09T06:42:28.380Z,3448.00
2018-08-09T06:43:28.369Z,3680.00
2018-08-09T06:44:28.371Z,3868.00
2018-08-09T06:45:28.349Z,4060.00
2018-08-09T06:46:28.378Z,4340.00
2018-08-09T06:47:28.330Z,4496.00
2018-08-09T06:48:28.321Z,4532.00
2018-08-09T06:49:28.305Z,4320.00
2018-08-09T06:50:28.296Z,4136.00
2018-08-09T06:51:28.314Z,4328.00
2018-08-09T06:52:28.274Z,4636.00
2018-08-09T06:53:28.263Z,4904.00
2018-08-09T06:54:28.253Z,5148.00
2018-08-09T06:55:28.242Z,5224.00
2018-08-09T06:56:28.232Z,4840.00
2018-08-09T06:57:28.245Z,4456.00
2018-08-09T06:58:28.212Z,4296.00
2018-08-09T06:59:28.205Z,4356.00
2018-08-09T07:00:28.209Z,4924.00
2018-08-09T07:01:28.180Z,7904.00
2018-08-09T07:02:28.198Z,5964.00
2018-08-09T07:03:28.166Z,6792.00
2018-08-09T07:04:28.145Z,6496.00
2018-08-09T07:05:28.138Z,6204.00
2018-08-09T07:06:28.124Z,6532.00
2018-08-09T07:07:28.153Z,7736.00
2018-08-09T07:08:28.103Z,8124.00
2018-08-09T07:09:28.106Z,8992.00
2018-08-09T07:10:28.083Z,11540.00
2018-08-09T07:11:28.070Z,17152.00
2018-08-09T07:12:28.060Z,16800.00
2018-08-09T07:13:28.081Z,14724.00
2018-08-09T07:14:28.037Z,9236.00
2018-08-09T07:15:28.030Z,13464.00
2018-08-09T07:16:28.017Z,9044.00
2018-08-09T07:17:28.005Z,10340.00
2018-08-09T07:18:28.024Z,9036.00
2018-08-09T07:19:27.984Z,9852.00
2018-08-09T07:20:28.028Z,11244.00
2018-08-09T07:21:27.962Z,11624.00
2018-08-09T07:22:27.960Z,10592.00
2018-08-09T07:23:27.941Z,9436.00
2018-08-09T07:24:27.956Z,8648.00
2018-08-09T07:25:27.919Z,8232.00
2018-08-09T07:26:27.960Z,7800.00
2018-08-09T07:27:27.898Z,7784.00
2018-08-09T07:28:27.894Z,8336.00
2018-08-09T07:29:27.904Z,9356.00
2018-08-09T07:30:27.868Z,10332.00
2018-08-09T07:31:27.856Z,11436.00
2018-08-09T07:32:27.857Z,12444.00
2018-08-09T07:33:27.835Z,13004.00
2018-08-09T07:34:27.855Z,13592.00
2018-08-09T07:35:27.820Z,14072.00
2018-08-09T07:36:27.829Z,13836.00
2018-08-09T07:37:27.794Z,13580.00
2018-08-09T07:38:27.783Z,13704.00
2018-08-09T07:39:27.882Z,14672.00
2018-08-09T07:40:27.786Z,15532.00
2018-08-09T07:41:27.751Z,13588.00
2018-08-09T07:42:27.740Z,12140.00
2018-08-09T07:43:27.730Z,10992.00
2018-08-09T07:44:27.719Z,8972.00
2018-08-09T07:45:27.756Z,7788.00
2018-08-09T07:46:27.701Z,8172.00
2018-08-09T07:47:27.687Z,9336.00
2018-08-09T07:48:27.721Z,11148.00
2018-08-09T07:49:27.673Z,13096.00
2018-08-09T07:50:27.683Z,14380.00
2018-08-09T07:51:27.670Z,14312.00
2018-08-09T07:52:27.638Z,13920.00
2018-08-09T07:53:27.625Z,14252.00
2018-08-09T07:54:27.735Z,12436.00
2018-08-09T07:55:27.602Z,12500.00
2018-08-09T07:56:27.621Z,14608.00
2018-08-09T07:57:27.593Z,17088.00
2018-08-09T07:58:27.571Z,19008.00
2018-08-09T07:59:27.561Z,19328.00
2018-08-09T08:00:27.552Z,18560.00
2018-08-09T08:01:27.567Z,16060.00
2018-08-09T08:02:27.531Z,14312.00
2018-08-09T08:03:27.529Z,12536.00
2018-08-09T08:04:27.515Z,12820.00
2018-08-09T08:05:27.504Z,11564.00
2018-08-09T08:06:27.525Z,10952.00
2018-08-09T08:07:27.474Z,10528.00
2018-08-09T08:08:27.512Z,9920.00
2018-08-09T08:09:27.462Z,9384.00
2018-08-09T08:10:27.444Z,9288.00
2018-08-09T08:11:27.435Z,9360.00
2018-08-09T08:12:27.446Z,9504.00
2018-08-09T08:13:27.409Z,9724.00
2018-08-09T08:14:27.398Z,9720.00
2018-08-09T08:15:27.388Z,9524.00
2018-08-09T08:16:27.377Z,9292.00
2018-08-09T08:17:27.390Z,9128.00
2018-08-09T08:18:27.355Z,9056.00
2018-08-09T08:19:27.345Z,9008.00
2018-08-09T08:20:27.333Z,8964.00
2018-08-09T08:21:27.324Z,8984.00
2018-08-09T08:22:27.348Z,8984.00
2018-08-09T08:23:27.301Z,9008.00
2018-08-09T08:24:27.297Z,9024.00
2018-08-09T08:25:27.281Z,9088.00
2018-08-09T08:26:27.267Z,9156.00
2018-08-09T08:27:27.280Z,9276.00
2018-08-09T08:28:27.296Z,9592.00
2018-08-09T08:29:27.237Z,9816.00
2018-08-09T08:30:27.225Z,10156.00
2018-08-09T08:31:27.214Z,10016.00
2018-08-09T08:32:27.203Z,9884.00
2018-08-09T08:33:27.220Z,9736.00
2018-08-09T08:34:27.210Z,9624.00
2018-08-09T08:35:27.170Z,9608.00
2018-08-09T08:36:27.187Z,9688.00
2018-08-09T08:37:27.149Z,9772.00
2018-08-09T08:38:27.161Z,9856.00
2018-08-09T08:39:27.128Z,9912.00
2018-08-09T08:40:27.116Z,9964.00
2018-08-09T08:41:27.162Z,10076.00
2018-08-09T08:42:27.094Z,10204.00
2018-08-09T08:43:27.113Z,10488.00
2018-08-09T08:44:27.095Z,11028.00
2018-08-09T08:45:27.061Z,11916.00
2018-08-09T08:46:27.051Z,13260.00
2018-08-09T08:47:27.065Z,15292.00
2018-08-09T08:48:27.034Z,18048.00
2018-08-09T08:49:27.046Z,19072.00
2018-08-09T08:50:27.008Z,18720.00
2018-08-09T08:51:27.001Z,18400.00
2018-08-09T08:52:26.989Z,18688.00
2018-08-09T08:53:26.979Z,19680.00
2018-08-09T08:54:27.017Z,20288.00
2018-08-09T08:55:26.957Z,21984.00
2018-08-09T08:56:26.945Z,20608.00
2018-08-09T08:57:26.935Z,20192.00
2018-08-09T08:58:26.925Z,19968.00
2018-08-09T08:59:26.942Z,20864.00
2018-08-09T09:00:26.907Z,21312.00
2018-08-09T09:01:26.899Z,19072.00
2018-08-09T09:02:26.882Z,17344.00
2018-08-09T09:03:26.891Z,16476.00
2018-08-09T09:04:26.919Z,15872.00
2018-08-09T09:05:26.881Z,13372.00
2018-08-09T09:06:26.840Z,10944.00
2018-08-09T09:07:26.848Z,10156.00
2018-08-09T09:08:26.819Z,9644.00
2018-08-09T09:09:26.823Z,9508.00
2018-08-09T09:10:26.824Z,9340.00
2018-08-09T09:11:26.789Z,9232.00
2018-08-09T09:12:26.777Z,9468.00
2018-08-09T09:13:26.767Z,9668.00
2018-08-09T09:14:26.757Z,9868.00
2018-08-09T09:15:26.772Z,10140.00
2018-08-09T09:16:26.735Z,10644.00
2018-08-09T09:17:26.729Z,11488.00
2018-08-09T09:18:26.714Z,12964.00
2018-08-09T09:19:26.705Z,14540.00
2018-08-09T09:20:26.739Z,15292.00
2018-08-09T09:21:26.683Z,14680.00
2018-08-09T09:22:26.673Z,13552.00
2018-08-09T09:23:26.661Z,12316.00
2018-08-09T09:24:26.650Z,11608.00
2018-08-09T09:25:26.664Z,11508.00
2018-08-09T09:26:26.630Z,11484.00
2018-08-09T09:27:26.619Z,11264.00
2018-08-09T09:28:26.610Z,10868.00
2018-08-09T09:29:26.602Z,10356.00
2018-08-09T09:30:26.637Z,9328.00
2018-08-09T09:31:26.579Z,9900.00
2018-08-09T09:32:26.568Z,9888.00
2018-08-09T09:33:26.558Z,9792.00
2018-08-09T09:34:26.546Z,9504.00
2018-08-09T09:35:26.538Z,9356.00
2018-08-09T09:36:26.552Z,9200.00
2018-08-09T09:37:26.523Z,9128.00
2018-08-09T09:38:26.506Z,9064.00
2018-08-09T09:39:26.494Z,9012.00
2018-08-09T09:40:26.485Z,8952.00
2018-08-09T09:41:26.517Z,8900.00
2018-08-09T09:42:26.478Z,8756.00
2018-08-09T09:43:26.452Z,8640.00
2018-08-09T09:44:26.445Z,8640.00
2018-08-09T09:45:26.432Z,8460.00
2018-08-09T09:46:26.451Z,8388.00
2018-08-09T09:47:26.411Z,8304.00
2018-08-09T09:48:26.402Z,8220.00
2018-08-09T09:49:26.390Z,8204.00
2018-08-09T09:50:26.380Z,8236.00
2018-08-09T09:51:26.369Z,8308.00
2018-08-09T09:52:26.388Z,8408.00
2018-08-09T09:53:26.371Z,8408.00
2018-08-09T09:54:26.375Z,8560.00
2018-08-09T09:55:26.330Z,8604.00
2018-08-09T09:56:26.320Z,8600.00
2018-08-09T09:57:26.331Z,8696.00
2018-08-09T09:58:26.295Z,8824.00
2018-08-09T09:59:26.286Z,8896.00
2018-08-09T10:00:26.274Z,8932.00
2018-08-09T10:01:26.266Z,8996.00
2018-08-09T10:02:26.280Z,8928.00
2018-08-09T10:03:26.257Z,8908.00
2018-08-09T10:04:26.232Z,8900.00
2018-08-09T10:05:26.224Z,8856.00
2018-08-09T10:06:26.212Z,8816.00
2018-08-09T10:07:26.236Z,8860.00
2018-08-09T10:08:26.192Z,8812.00
2018-08-09T10:09:26.180Z,8776.00
2018-08-09T10:10:26.221Z,8848.00
2018-08-09T10:11:26.158Z,9148.00
2018-08-09T10:12:26.171Z,9548.00
2018-08-09T10:13:26.140Z,10260.00
2018-08-09T10:14:26.129Z,11244.00
2018-08-09T10:15:26.116Z,12784.00
2018-08-09T10:16:26.124Z,14088.00
2018-08-09T10:17:26.119Z,14668.00
2018-08-09T10:18:26.085Z,14656.00
2018-08-09T10:19:26.074Z,13508.00
2018-08-09T10:20:26.067Z,12592.00
2018-08-09T10:21:26.054Z,11432.00
2018-08-09T10:22:26.069Z,11400.00
2018-08-09T10:23:26.037Z,11188.00
2018-08-09T10:24:26.023Z,11592.00
2018-08-09T10:25:26.012Z,12568.00
2018-08-09T10:26:26.017Z,13352.00
2018-08-09T10:27:26.017Z,13696.00
2018-08-09T10:28:25.983Z,15244.00
2018-08-09T10:29:25.971Z,15432.00
2018-08-09T10:30:25.965Z,15072.00
2018-08-09T10:31:25.951Z,14968.00
2018-08-09T10:32:25.968Z,15388.00
2018-08-09T10:33:25.931Z,15312.00
2018-08-09T10:34:25.919Z,16172.00
2018-08-09T10:35:25.923Z,18144.00
2018-08-09T10:36:25.922Z,19392.00
2018-08-09T10:37:25.889Z,20704.00
2018-08-09T10:38:25.926Z,21344.00
2018-08-09T10:39:25.870Z,22048.00
2018-08-09T10:40:25.857Z,22656.00
2018-08-09T10:41:25.848Z,23264.00
2018-08-09T10:42:25.842Z,23968.00
2018-08-09T10:43:25.854Z,24224.00
2018-08-09T10:44:25.818Z,24288.00
2018-08-09T10:45:25.812Z,24608.00
2018-08-09T10:46:25.796Z,23840.00
2018-08-09T10:47:25.788Z,22848.00
2018-08-09T10:48:25.805Z,21600.00
2018-08-09T10:49:25.799Z,20896.00
2018-08-09T10:50:25.755Z,20480.00
2018-08-09T10:51:25.779Z,20448.00
2018-08-09T10:52:25.744Z,19872.00
2018-08-09T10:53:25.726Z,19200.00
2018-08-09T10:54:25.740Z,18592.00
2018-08-09T10:55:25.705Z,18464.00
2018-08-09T10:56:25.700Z,18688.00
2018-08-09T10:57:25.691Z,18848.00
2018-08-09T10:58:25.675Z,19328.00
2018-08-09T10:59:25.728Z,18848.00
2018-08-09T11:00:25.654Z,19040.00
2018-08-09T11:01:25.644Z,18976.00
2018-08-09T11:02:25.640Z,19360.00
2018-08-09T11:03:25.624Z,20384.00
2018-08-09T11:04:25.643Z,21824.00
2018-08-09T11:05:25.604Z,22880.00
2018-08-09T11:06:25.602Z,24864.00
2018-08-09T11:07:25.589Z,27072.00
2018-08-09T11:08:25.578Z,26496.00
2018-08-09T11:09:25.625Z,26400.00
2018-08-09T11:10:25.578Z,25376.00
2018-08-09T11:11:25.545Z,26848.00
2018-08-09T11:12:25.536Z,26688.00
2018-08-09T11:13:25.523Z,25184.00
2018-08-09T11:14:25.513Z,23360.00
2018-08-09T11:15:25.527Z,21696.00
2018-08-09T11:16:25.491Z,20800.00
2018-08-09T11:17:25.481Z,20800.00
2018-08-09T11:18:25.472Z,20352.00
2018-08-09T11:19:25.720Z,19776.00
2018-08-09T11:20:25.474Z,39456.00
2018-08-09T11:21:25.453Z,54336.00
2018-08-09T11:22:25.452Z,64736.00
2018-08-09T11:23:25.420Z,64256.00
2018-08-09T11:24:25.414Z,64896.00
2018-08-09T11:25:25.437Z,57952.00
2018-08-09T11:26:25.406Z,54464.00
2018-08-09T11:27:25.381Z,47424.00
2018-08-09T11:28:25.377Z,46880.00
2018-08-09T11:29:25.375Z,42752.00
2018-08-09T11:30:25.367Z,37984.00
2018-08-09T11:31:25.372Z,29632.00
2018-08-09T11:32:25.354Z,30560.00
2018-08-09T11:33:25.327Z,26880.00
2018-08-09T11:34:25.318Z,24352.00
2018-08-09T11:35:25.304Z,21248.00
2018-08-09T11:36:25.319Z,20640.00
2018-08-09T11:37:25.285Z,19328.00
2018-08-09T11:38:25.285Z,19552.00
2018-08-09T11:39:25.267Z,19168.00
2018-08-09T11:40:25.260Z,18624.00
2018-08-09T11:41:25.280Z,18560.00
2018-08-09T11:42:25.260Z,18432.00
2018-08-09T11:43:25.230Z,18144.00
2018-08-09T11:44:25.222Z,18176.00
2018-08-09T11:45:25.205Z,18336.00
2018-08-09T11:46:25.198Z,18304.00
2018-08-09T11:47:25.209Z,18272.00
2018-08-09T11:48:25.189Z,18656.00
2018-08-09T11:49:25.230Z,19840.00
2018-08-09T11:50:25.170Z,19296.00
2018-08-09T11:51:25.147Z,19104.00
2018-08-09T11:52:25.193Z,18848.00
2018-08-09T11:53:25.139Z,18400.00
2018-08-09T11:54:25.166Z,18016.00
2018-08-09T11:55:25.126Z,17696.00
2018-08-09T11:56:25.144Z,17344.00
2018-08-09T11:57:25.084Z,17216.00
2018-08-09T11:58:25.106Z,17312.00
2018-08-09T11:59:25.068Z,17536.00
2018-08-09T12:00:25.056Z,17792.00
2018-08-09T12:01:25.089Z,17888.00
2018-08-09T12:02:25.033Z,18144.00
2018-08-09T12:03:25.092Z,18752.00
2018-08-09T12:04:25.073Z,19168.00
2018-08-09T12:05:25.022Z,21216.00
2018-08-09T12:06:24.994Z,21472.00
2018-08-09T12:07:24.989Z,21184.00
2018-08-09T12:08:24.996Z,21248.00
2018-08-09T12:09:24.983Z,20608.00
2018-08-09T12:10:24.952Z,19424.00
2018-08-09T12:11:24.957Z,16992.00
2018-08-09T12:12:24.938Z,14828.00
2018-08-09T12:13:24.992Z,12188.00
2018-08-09T12:14:24.930Z,11648.00
2018-08-09T12:15:24.950Z,11344.00
2018-08-09T12:16:24.890Z,11016.00
2018-08-09T12:17:24.885Z,8708.00
2018-08-09T12:18:24.916Z,7296.00
2018-08-09T12:19:24.893Z,6476.00
2018-08-09T12:20:24.868Z,5240.00
2018-08-09T12:21:24.851Z,3892.00
2018-08-09T12:22:24.831Z,3312.00